createdAt,value
2023-04-22T00:00:32.513Z,100.00
2023-04-22T00:02:59.592Z,100.00
2023-04-22T00:05:26.295Z,100.00
2023-04-22T00:07:52.998Z,100.00
2023-04-22T00:10:19.606Z,100.00
2023-04-22T00:12:46.274Z,100.00
2023-04-22T00:15:12.988Z,100.00
2023-04-22T00:17:40.361Z,100.00
2023-04-22T00:20:08.088Z,100.00
2023-04-22T00:22:34.640Z,100.00
2023-04-22T00:25:01.241Z,100.00
2023-04-22T00:27:27.996Z,100.00
2023-04-22T00:29:54.729Z,100.00
2023-04-22T00:32:22.650Z,100.00
2023-04-22T00:34:50.319Z,100.00
2023-04-22T00:37:16.945Z,100.00
2023-04-22T00:39:43.711Z,100.00
2023-04-22T00:42:10.675Z,100.00
2023-04-22T00:44:38.164Z,100.00
2023-04-22T00:47:04.959Z,99.98
2023-04-22T00:49:31.650Z,99.45
2023-04-22T00:51:58.166Z,99.26
2023-04-22T00:54:24.928Z,98.80
2023-04-22T00:56:51.577Z,98.60
2023-04-22T00:59:18.207Z,99.56
2023-04-22T01:01:44.804Z,99.40
2023-04-22T01:04:12.849Z,99.32
2023-04-22T01:06:41.177Z,99.10
2023-04-22T01:09:07.760Z,99.85
2023-04-22T01:11:35.851Z,100.00
2023-04-22T01:14:03.289Z,100.00
2023-04-22T01:16:31.152Z,100.00
2023-04-22T01:18:57.730Z,100.00
2023-04-22T01:21:24.442Z,100.00
2023-04-22T01:23:51.279Z,100.00
2023-04-22T01:26:17.986Z,100.00
2023-04-22T01:28:45.577Z,100.00
2023-04-22T01:31:14.857Z,100.00
2023-04-22T01:33:41.411Z,100.00
2023-04-22T01:36:10.366Z,100.00
2023-04-22T01:38:38.938Z,100.00
2023-04-22T01:41:05.762Z,100.00
2023-04-22T01:43:32.786Z,100.00
2023-04-22T01:46:02.592Z,100.00
2023-04-22T01:48:29.133Z,100.00
2023-04-22T01:50:56.124Z,100.00
2023-04-22T01:53:22.659Z,100.00
2023-04-22T01:55:52.396Z,100.00
2023-04-22T01:58:18.986Z,100.00
2023-04-22T02:00:45.751Z,100.00
2023-04-22T02:03:12.406Z,100.00
2023-04-22T02:05:39.670Z,100.00
2023-04-22T02:08:06.412Z,100.00
2023-04-22T02:10:32.973Z,100.00
2023-04-22T02:12:59.722Z,100.00
2023-04-22T02:15:26.358Z,100.00
2023-04-22T02:17:54.119Z,100.00
2023-04-22T02:20:20.779Z,100.00
2023-04-22T02:22:47.774Z,100.00
2023-04-22T02:25:14.510Z,100.00
2023-04-22T02:27:42.332Z,100.00
2023-04-22T02:30:09.733Z,100.00
2023-04-22T02:32:38.861Z,100.00
2023-04-22T02:35:05.779Z,100.00
2023-04-22T02:37:32.405Z,100.00
2023-04-22T02:39:59.004Z,100.00
2023-04-22T02:42:25.581Z,100.00
2023-04-22T02:44:52.242Z,100.00
2023-04-22T02:47:20.488Z,100.00
2023-04-22T02:49:48.453Z,100.00
2023-04-22T02:52:15.230Z,100.00
2023-04-22T02:54:41.783Z,100.00
2023-04-22T02:57:09.273Z,100.00
2023-04-22T02:59:37.354Z,100.00
2023-04-22T03:02:06.651Z,100.00
2023-04-22T03:04:54.478Z,100.00
2023-04-22T03:07:22.050Z,100.00
2023-04-22T03:09:48.740Z,100.00
2023-04-22T03:12:15.357Z,100.00
2023-04-22T03:14:42.641Z,100.00
2023-04-22T03:17:09.549Z,100.00
2023-04-22T03:19:36.452Z,100.00
2023-04-22T03:22:03.187Z,100.00
2023-04-22T03:24:29.780Z,100.00
2023-04-22T03:26:56.656Z,100.00
2023-04-22T03:29:23.290Z,100.00
2023-04-22T03:31:49.972Z,100.00
2023-04-22T03:34:17.613Z,100.00
2023-04-22T03:36:45.666Z,100.00
2023-04-22T03:39:13.062Z,100.00
2023-04-22T03:41:41.356Z,100.00
2023-04-22T03:44:08.131Z,100.00
2023-04-22T03:46:35.881Z,100.00
2023-04-22T03:49:16.946Z,100.00
2023-04-22T03:51:44.379Z,100.00
2023-04-22T03:54:15.662Z,100.00
2023-04-22T03:56:51.152Z,100.00
2023-04-22T03:59:19.221Z,100.00
2023-04-22T04:01:46.605Z,100.00
2023-04-22T04:04:14.511Z,100.00
2023-04-22T04:06:49.109Z,100.00
2023-04-22T04:09:15.814Z,100.00
2023-04-22T04:11:43.273Z,100.00
2023-04-22T04:14:10.822Z,100.00
2023-04-22T04:16:42.582Z,99.05
2023-04-22T04:19:14.964Z,94.12
2023-04-22T04:21:42.413Z,83.05
2023-04-22T04:24:09.715Z,75.89
2023-04-22T04:26:42.440Z,71.04
2023-04-22T04:29:13.867Z,66.67
2023-04-22T04:31:46.175Z,63.73
2023-04-22T04:34:13.324Z,61.82
2023-04-22T04:36:40.532Z,59.50
2023-04-22T04:39:18.933Z,57.99
2023-04-22T04:41:46.102Z,56.21
2023-04-22T04:44:12.736Z,55.90
2023-04-22T04:46:40.759Z,54.02
2023-04-22T04:49:09.521Z,52.87
2023-04-22T04:51:45.588Z,50.43
2023-04-22T04:54:12.568Z,51.17
2023-04-22T04:56:40.597Z,50.05
2023-04-22T04:59:09.131Z,49.60
2023-04-22T05:01:36.596Z,47.27
2023-04-22T05:04:08.038Z,43.99
2023-04-22T05:06:38.207Z,45.47
2023-04-22T05:09:05.062Z,45.47
2023-04-22T05:11:31.685Z,43.01
2023-04-22T05:14:00.923Z,42.54
2023-04-22T05:16:32.958Z,41.57
2023-04-22T05:18:59.821Z,40.11
2023-04-22T05:21:26.437Z,41.71
2023-04-22T05:23:53.606Z,40.52
2023-04-22T05:26:20.225Z,41.11
2023-04-22T05:28:49.153Z,39.72
2023-04-22T05:31:17.224Z,42.23
2023-04-22T05:33:46.178Z,37.20
2023-04-22T05:36:12.814Z,37.44
2023-04-22T05:38:39.732Z,40.18
2023-04-22T05:41:06.271Z,40.43
2023-04-22T05:43:33.304Z,40.80
2023-04-22T05:46:08.946Z,43.34
2023-04-22T05:48:38.346Z,44.94
2023-04-22T05:51:08.757Z,41.40
2023-04-22T05:53:36.210Z,41.14
2023-04-22T05:56:03.203Z,38.86
2023-04-22T05:58:29.747Z,38.76
2023-04-22T06:01:09.366Z,40.46
2023-04-22T06:03:57.423Z,40.78
2023-04-22T06:06:26.024Z,42.93
2023-04-22T06:08:52.687Z,42.59
2023-04-22T06:11:19.278Z,40.80
2023-04-22T06:13:45.849Z,40.58
2023-04-22T06:16:12.398Z,36.72
2023-04-22T06:18:39.168Z,35.75
2023-04-22T06:21:10.738Z,38.20
2023-04-22T06:23:37.328Z,39.01
2023-04-22T06:26:04.575Z,35.43
2023-04-22T06:28:31.910Z,36.86
2023-04-22T06:31:04.191Z,36.11
2023-04-22T06:33:30.800Z,35.42
2023-04-22T06:35:57.421Z,35.29
2023-04-22T06:38:24.452Z,37.99
2023-04-22T06:41:09.337Z,36.67
2023-04-22T06:43:39.245Z,37.84
2023-04-22T06:46:08.603Z,40.75
2023-04-22T06:48:52.605Z,38.45
2023-04-22T06:51:45.140Z,35.94
2023-04-22T06:54:12.488Z,38.10
2023-04-22T06:56:39.207Z,37.48
2023-04-22T06:59:07.766Z,35.90
2023-04-22T07:01:35.334Z,35.67
2023-04-22T07:04:02.206Z,34.95
2023-04-22T07:06:29.088Z,39.52
2023-04-22T07:08:56.003Z,42.46
2023-04-22T07:11:22.639Z,36.63
2023-04-22T07:13:58.113Z,39.29
2023-04-22T07:16:24.913Z,37.87
2023-04-22T07:18:51.512Z,35.93
2023-04-22T07:21:18.156Z,36.61
2023-04-22T07:23:44.735Z,36.96
2023-04-22T07:26:11.266Z,39.90
2023-04-22T07:28:37.880Z,38.93
2023-04-22T07:31:04.466Z,39.74
2023-04-22T07:33:31.072Z,41.19
2023-04-22T07:35:57.690Z,40.08
2023-04-22T07:38:24.674Z,39.55
2023-04-22T07:40:51.270Z,40.60
2023-04-22T07:43:17.780Z,40.03
2023-04-22T07:45:44.503Z,43.33
2023-04-22T07:48:11.097Z,37.97
2023-04-22T07:50:38.833Z,39.54
2023-04-22T07:53:06.056Z,39.23
2023-04-22T07:55:32.749Z,40.34
2023-04-22T07:58:01.096Z,39.20
2023-04-22T08:00:27.785Z,39.32
2023-04-22T08:02:54.578Z,40.20
2023-04-22T08:05:21.263Z,41.23
2023-04-22T08:07:47.833Z,41.18
2023-04-22T08:10:14.607Z,40.05
2023-04-22T08:12:41.196Z,43.14
2023-04-22T08:15:07.949Z,39.85
2023-04-22T08:17:34.657Z,38.99
2023-04-22T08:20:01.264Z,39.37
2023-04-22T08:22:27.839Z,39.63
2023-04-22T08:24:54.436Z,39.79
2023-04-22T08:27:21.567Z,44.19
2023-04-22T08:29:48.111Z,44.33
2023-04-22T08:32:14.846Z,44.55
2023-04-22T08:34:41.671Z,44.57
2023-04-22T08:37:08.595Z,46.55
2023-04-22T08:39:35.407Z,43.56
2023-04-22T08:42:02.307Z,43.39
2023-04-22T08:44:29.710Z,43.63
2023-04-22T08:46:56.650Z,42.71
2023-04-22T08:49:23.750Z,42.01
2023-04-22T08:51:50.918Z,43.54
2023-04-22T08:54:17.452Z,43.22
2023-04-22T08:56:44.609Z,42.45
2023-04-22T08:59:11.880Z,42.12
2023-04-22T09:01:39.907Z,42.86
2023-04-22T09:04:07.448Z,44.31
2023-04-22T09:06:34.158Z,42.91
2023-04-22T09:09:01.305Z,43.59
2023-04-22T09:11:28.455Z,44.40
2023-04-22T09:13:55.260Z,44.81
2023-04-22T09:16:21.842Z,42.90
2023-04-22T09:18:48.523Z,43.05
2023-04-22T09:21:15.150Z,44.98
2023-04-22T09:24:02.479Z,45.18
2023-04-22T09:26:29.115Z,45.16
2023-04-22T09:28:58.450Z,43.22
2023-04-22T09:31:25.836Z,45.54
2023-04-22T09:33:53.736Z,43.41
2023-04-22T09:36:26.066Z,44.31
2023-04-22T09:38:59.889Z,45.84
2023-04-22T09:41:27.601Z,43.49
2023-04-22T09:43:57.961Z,46.40
2023-04-22T09:46:25.849Z,43.38
2023-04-22T09:48:56.246Z,42.54
2023-04-22T09:51:22.882Z,43.46
2023-04-22T09:54:08.893Z,47.11
2023-04-22T09:56:49.330Z,43.72
2023-04-22T09:59:20.853Z,43.35
2023-04-22T10:01:48.230Z,44.37
2023-04-22T10:04:16.150Z,43.56
2023-04-22T10:06:43.148Z,45.90
2023-04-22T10:09:09.851Z,45.81
2023-04-22T10:11:37.695Z,43.89
2023-04-22T10:14:05.385Z,43.17
2023-04-22T10:16:33.621Z,45.48
2023-04-22T10:19:01.944Z,43.87
2023-04-22T10:21:29.701Z,43.77
2023-04-22T10:23:58.515Z,46.12
2023-04-22T10:26:44.050Z,44.38
2023-04-22T10:29:17.165Z,44.28
2023-04-22T10:32:03.604Z,44.22
2023-04-22T10:34:32.491Z,44.01
2023-04-22T10:37:06.133Z,43.77
2023-04-22T10:39:32.759Z,44.32
2023-04-22T10:42:02.377Z,45.52
2023-04-22T10:44:31.142Z,45.40
2023-04-22T10:46:58.706Z,42.32
2023-04-22T10:49:26.767Z,43.32
2023-04-22T10:51:59.970Z,42.53
2023-04-22T10:54:28.790Z,41.58
2023-04-22T10:57:04.209Z,40.11
2023-04-22T10:59:31.820Z,42.60
2023-04-22T11:02:01.949Z,41.80
2023-04-22T11:04:28.698Z,39.45
2023-04-22T11:07:27.825Z,39.24
2023-04-22T11:10:05.178Z,39.63
2023-04-22T11:12:44.083Z,41.61
2023-04-22T11:15:16.649Z,41.13
2023-04-22T11:17:44.051Z,39.78
2023-04-22T11:20:12.763Z,40.87
2023-04-22T11:22:40.901Z,39.26
2023-04-22T11:25:10.313Z,40.41
2023-04-22T11:27:37.659Z,36.82
2023-04-22T11:30:04.603Z,37.40
2023-04-22T11:32:31.860Z,39.16
2023-04-22T11:34:58.470Z,40.02
2023-04-22T11:37:25.193Z,39.66
2023-04-22T11:40:13.591Z,39.61
2023-04-22T11:42:39.288Z,39.97
2023-04-22T11:45:06.868Z,40.93
2023-04-22T11:50:48.356Z,39.82
2023-04-22T11:53:16.481Z,41.56
2023-04-22T11:55:43.659Z,42.22
2023-04-22T11:58:14.799Z,41.69
2023-04-22T12:00:43.128Z,39.18
2023-04-22T12:03:15.231Z,40.38
2023-04-22T12:05:44.469Z,37.85
2023-04-22T12:08:18.853Z,37.75
2023-04-22T12:10:50.805Z,37.59
2023-04-22T12:13:29.059Z,39.71
2023-04-22T12:16:02.550Z,40.88
2023-04-22T12:18:29.403Z,41.50
2023-04-22T12:20:59.443Z,39.71
2023-04-22T12:23:26.024Z,39.97
2023-04-22T12:25:52.569Z,41.31
2023-04-22T12:28:19.813Z,39.45
2023-04-22T12:30:46.479Z,42.68
2023-04-22T12:33:13.094Z,39.87
2023-04-22T12:35:39.908Z,39.23
2023-04-22T12:38:06.608Z,38.28
2023-04-22T12:40:33.277Z,38.79
2023-04-22T12:42:59.941Z,39.79
2023-04-22T12:45:26.580Z,38.57
2023-04-22T12:47:53.928Z,39.45
2023-04-22T12:50:20.991Z,40.31
2023-04-22T12:52:47.724Z,40.08
2023-04-22T12:55:14.264Z,41.29
2023-04-22T12:57:40.875Z,38.73
2023-04-22T13:00:14.148Z,42.24
2023-04-22T13:02:44.334Z,39.91
2023-04-22T13:05:11.631Z,40.47
2023-04-22T13:07:39.460Z,40.45
2023-04-22T13:10:06.861Z,41.56
2023-04-22T13:12:33.456Z,40.47
2023-04-22T13:15:01.258Z,38.56
2023-04-22T13:17:59.028Z,41.05
2023-04-22T13:20:46.376Z,39.95
2023-04-22T13:23:13.445Z,40.65
2023-04-22T13:25:40.050Z,39.89
2023-04-22T13:28:06.590Z,40.09
2023-04-22T13:30:33.232Z,38.04
2023-04-22T13:32:59.980Z,39.34
2023-04-22T13:35:26.549Z,39.55
2023-04-22T13:37:53.218Z,42.14
2023-04-22T13:40:19.842Z,40.54
2023-04-22T13:42:46.469Z,39.75
2023-04-22T13:45:13.148Z,38.78
2023-04-22T13:47:39.747Z,38.87
2023-04-22T13:50:06.901Z,39.39
2023-04-22T13:52:34.059Z,39.74
2023-04-22T13:55:01.022Z,39.06
2023-04-22T13:57:27.770Z,40.34
2023-04-22T13:59:54.319Z,37.82
2023-04-22T14:02:21.290Z,40.16
2023-04-22T14:04:47.956Z,40.23
2023-04-22T14:07:14.673Z,39.65
2023-04-22T14:09:44.389Z,39.64
2023-04-22T14:12:11.299Z,39.63
2023-04-22T14:14:38.048Z,38.73
2023-04-22T14:17:04.669Z,39.98
2023-04-22T14:19:31.826Z,40.35
2023-04-22T14:21:58.449Z,39.19
2023-04-22T14:24:25.449Z,39.55
2023-04-22T14:26:52.544Z,40.35
2023-04-22T14:29:19.197Z,39.48
2023-04-22T14:31:45.876Z,39.84
2023-04-22T14:34:12.534Z,39.31
2023-04-22T14:36:39.159Z,38.28
2023-04-22T14:39:05.730Z,38.47
2023-04-22T14:41:32.291Z,38.76
2023-04-22T14:43:58.952Z,38.63
2023-04-22T14:46:25.574Z,37.61
2023-04-22T14:48:59.421Z,38.98
2023-04-22T14:51:31.577Z,38.59
2023-04-22T14:53:58.284Z,39.14
2023-04-22T14:56:25.235Z,38.36
2023-04-22T14:58:51.782Z,39.13
2023-04-22T15:01:20.670Z,40.63
2023-04-22T15:03:48.770Z,39.43
2023-04-22T15:06:15.739Z,39.86
2023-04-22T15:08:42.321Z,42.17
2023-04-22T15:11:08.847Z,39.43
2023-04-22T15:13:36.071Z,41.11
2023-04-22T15:16:02.761Z,39.28
2023-04-22T15:18:29.567Z,40.03
2023-04-22T15:20:56.129Z,40.06
2023-04-22T15:23:23.692Z,39.68
2023-04-22T15:25:50.302Z,39.07
2023-04-22T15:28:16.845Z,39.32
2023-04-22T15:30:43.863Z,38.10
2023-04-22T15:33:10.500Z,40.08
2023-04-22T15:35:37.094Z,38.85
2023-04-22T15:38:04.446Z,39.95
2023-04-22T15:40:31.223Z,40.59
2023-04-22T15:42:57.792Z,40.04
2023-04-22T15:45:24.432Z,39.66
2023-04-22T15:47:52.478Z,40.69
2023-04-22T15:50:20.116Z,39.69
2023-04-22T15:52:46.669Z,39.82
2023-04-22T15:55:13.406Z,39.55
2023-04-22T15:57:40.011Z,40.02
2023-04-22T16:00:12.413Z,40.94
2023-04-22T16:02:43.520Z,40.53
2023-04-22T16:05:11.567Z,40.92
2023-04-22T16:07:38.500Z,40.01
2023-04-22T16:10:05.306Z,40.97
2023-04-22T16:12:34.033Z,41.04
2023-04-22T16:15:01.131Z,41.68
2023-04-22T16:17:27.860Z,41.18
2023-04-22T16:19:54.881Z,42.02
2023-04-22T16:22:21.410Z,40.54
2023-04-22T16:24:48.028Z,40.43
2023-04-22T16:27:17.151Z,41.81
2023-04-22T16:29:43.996Z,41.39
2023-04-22T16:32:11.013Z,40.70
2023-04-22T16:34:38.493Z,41.26
2023-04-22T16:37:06.065Z,40.53
2023-04-22T16:39:32.938Z,41.74
2023-04-22T16:41:59.483Z,41.01
2023-04-22T16:44:26.078Z,42.29
2023-04-22T16:46:52.713Z,41.35
2023-04-22T16:49:19.633Z,41.35
2023-04-22T16:51:46.386Z,41.65
2023-04-22T16:54:12.965Z,42.19
2023-04-22T16:56:39.503Z,41.96
2023-04-22T16:59:06.130Z,42.20
2023-04-22T17:01:32.811Z,42.72
2023-04-22T17:03:59.656Z,42.34
2023-04-22T17:06:28.028Z,42.14
2023-04-22T17:08:54.717Z,42.83
2023-04-22T17:11:22.013Z,43.05
2023-04-22T17:13:48.640Z,43.28
2023-04-22T17:16:15.578Z,42.52
2023-04-22T17:18:42.567Z,43.06
2023-04-22T17:21:09.428Z,43.13
2023-04-22T17:23:36.359Z,42.83
2023-04-22T17:26:03.045Z,43.75
2023-04-22T17:28:29.783Z,43.49
2023-04-22T17:30:56.442Z,43.52
2023-04-22T17:33:22.979Z,44.01
2023-04-22T17:35:49.570Z,44.19
2023-04-22T17:38:16.192Z,44.15
2023-04-22T17:40:43.803Z,44.07
2023-04-22T17:43:10.613Z,43.97
2023-04-22T17:45:37.261Z,44.46
2023-04-22T17:48:04.058Z,45.59
2023-04-22T17:50:30.666Z,45.88
2023-04-22T17:52:57.277Z,46.68
2023-04-22T17:55:24.098Z,47.05
2023-04-22T17:57:50.633Z,47.21
2023-04-22T18:00:18.169Z,47.40
2023-04-22T18:02:44.926Z,47.71
2023-04-22T18:05:11.960Z,47.78
2023-04-22T18:07:38.621Z,48.08
2023-04-22T18:10:05.440Z,48.13
2023-04-22T18:12:32.086Z,48.66
2023-04-22T18:14:58.610Z,48.77
2023-04-22T18:17:25.212Z,49.26
2023-04-22T18:20:00.085Z,49.46
2023-04-22T18:22:36.830Z,49.67
2023-04-22T18:25:03.441Z,49.69
2023-04-22T18:27:30.031Z,49.88
2023-04-22T18:29:56.598Z,49.97
2023-04-22T18:32:23.332Z,50.38
2023-04-22T18:34:50.756Z,50.11
2023-04-22T18:37:17.308Z,50.26
2023-04-22T18:39:43.925Z,49.98
2023-04-22T18:42:10.783Z,50.38
2023-04-22T18:44:37.360Z,50.76
2023-04-22T18:47:04.976Z,50.49
2023-04-22T18:49:33.892Z,51.09
2023-04-22T18:52:00.803Z,50.98
2023-04-22T18:54:28.750Z,51.01
2023-04-22T18:56:57.221Z,51.38
2023-04-22T18:59:23.844Z,51.37
2023-04-22T19:01:51.042Z,51.58
2023-04-22T19:04:17.817Z,51.60
2023-04-22T19:06:44.948Z,51.51
2023-04-22T19:09:11.955Z,51.98
2023-04-22T19:11:38.666Z,51.98
2023-04-22T19:14:05.545Z,52.17
2023-04-22T19:16:32.179Z,52.44
2023-04-22T19:18:58.750Z,52.36
2023-04-22T19:21:26.861Z,52.63
2023-04-22T19:23:53.549Z,52.60
2023-04-22T19:26:20.824Z,52.86
2023-04-22T19:28:48.706Z,52.97
2023-04-22T19:31:17.078Z,53.33
2023-04-22T19:33:44.081Z,53.65
2023-04-22T19:36:10.888Z,53.80
2023-04-22T19:38:37.486Z,53.85
2023-04-22T19:41:04.155Z,54.21
2023-04-22T19:43:30.725Z,53.98
2023-04-22T19:45:57.296Z,54.45
2023-04-22T19:48:24.313Z,54.51
2023-04-22T19:50:51.107Z,54.70
2023-04-22T19:53:18.441Z,54.63
2023-04-22T19:55:45.905Z,54.82
2023-04-22T19:58:12.903Z,55.40
2023-04-22T20:00:39.768Z,55.71
2023-04-22T20:03:07.122Z,55.58
2023-04-22T20:05:34.187Z,55.33
2023-04-22T20:08:01.904Z,55.42
2023-04-22T20:10:29.173Z,55.53
2023-04-22T20:12:55.960Z,55.69
2023-04-22T20:15:22.751Z,55.83
2023-04-22T20:17:49.579Z,55.96
2023-04-22T20:20:17.674Z,55.98
2023-04-22T20:22:45.439Z,55.80
2023-04-22T20:25:12.881Z,55.68
2023-04-22T20:27:39.492Z,55.87
2023-04-22T20:30:07.245Z,56.06
2023-04-22T20:32:34.070Z,56.03
2023-04-22T20:35:00.967Z,56.09
2023-04-22T20:37:28.646Z,55.90
2023-04-22T20:39:55.936Z,56.08
2023-04-22T20:42:22.932Z,56.30
2023-04-22T20:44:51.852Z,56.41
2023-04-22T20:47:20.815Z,56.75
2023-04-22T20:49:47.503Z,56.94
2023-04-22T20:52:14.092Z,57.22
2023-04-22T20:54:41.183Z,56.87
2023-04-22T20:57:08.060Z,57.15
2023-04-22T20:59:34.800Z,57.38
2023-04-22T21:02:02.124Z,57.45
2023-04-22T21:04:29.204Z,57.33
2023-04-22T21:06:56.117Z,57.11
2023-04-22T21:09:24.942Z,57.09
2023-04-22T21:11:52.405Z,57.12
2023-04-22T21:14:20.990Z,57.11
2023-04-22T21:16:58.050Z,57.08
2023-04-22T21:19:24.805Z,57.17
2023-04-22T21:21:53.150Z,57.29
2023-04-22T21:24:21.196Z,57.44
2023-04-22T21:26:48.462Z,57.85
2023-04-22T21:29:15.148Z,58.40
2023-04-22T21:31:41.805Z,58.58
2023-04-22T21:34:09.790Z,58.78
2023-04-22T21:36:36.431Z,58.70
2023-04-22T21:39:04.562Z,59.02
2023-04-22T21:43:58.082Z,59.70
2023-04-22T21:46:24.751Z,59.85
2023-04-22T21:48:51.511Z,59.93
2023-04-22T21:51:18.057Z,60.12
2023-04-22T21:53:44.712Z,60.08
2023-04-22T21:56:11.487Z,59.96
2023-04-22T21:58:38.154Z,59.98
2023-04-22T22:01:04.907Z,60.00
2023-04-22T22:03:31.663Z,60.00
2023-04-22T22:05:58.372Z,60.39
2023-04-22T22:08:25.069Z,59.65
2023-04-22T22:10:51.689Z,59.75
2023-04-22T22:13:18.324Z,59.98
2023-04-22T22:15:44.989Z,59.94
2023-04-22T22:18:11.572Z,60.07
2023-04-22T22:20:38.125Z,59.09
2023-04-22T22:23:04.875Z,58.53
2023-04-22T22:25:31.445Z,58.71
2023-04-22T22:27:58.066Z,58.17
2023-04-22T22:30:24.677Z,57.75
2023-04-22T22:32:51.273Z,58.25
2023-04-22T22:35:17.978Z,58.38
2023-04-22T22:37:44.812Z,58.42
2023-04-22T22:40:12.113Z,58.30
2023-04-22T22:42:38.612Z,57.91
2023-04-22T22:45:05.600Z,57.95
2023-04-22T22:47:38.990Z,58.14
2023-04-22T22:50:08.256Z,58.30
2023-04-22T22:52:34.851Z,58.31
2023-04-22T22:55:01.400Z,58.43
2023-04-22T22:57:28.170Z,58.83
2023-04-22T22:59:54.701Z,58.47
2023-04-22T23:02:21.404Z,58.59
2023-04-22T23:04:48.191Z,58.17
2023-04-22T23:07:16.628Z,58.40
2023-04-22T23:09:43.334Z,58.33
2023-04-22T23:12:09.901Z,58.32
2023-04-22T23:14:36.623Z,58.51
2023-04-22T23:17:03.458Z,58.39
2023-04-22T23:19:30.911Z,58.60
2023-04-22T23:21:57.918Z,58.54
2023-04-22T23:24:24.576Z,58.88
2023-04-22T23:26:51.297Z,58.94
2023-04-22T23:29:18.956Z,58.75
2023-04-22T23:31:46.597Z,58.79
2023-04-22T23:34:15.100Z,58.86
2023-04-22T23:36:42.269Z,59.62
2023-04-22T23:39:09.819Z,59.83
2023-04-22T23:41:36.591Z,60.18
2023-04-22T23:44:03.479Z,60.28
2023-04-22T23:46:30.077Z,60.19
2023-04-22T23:48:57.698Z,61.08
2023-04-22T23:51:24.803Z,60.58
2023-04-22T23:53:51.422Z,61.37
2023-04-22T23:56:21.130Z,61.54
2023-04-22T23:58:48.170Z,61.59
